createdAt,value
2023-03-26T00:01:17.749Z,12.49
2023-03-26T00:03:31.951Z,12.37
2023-03-26T00:05:45.724Z,12.34
2023-03-26T00:07:58.759Z,12.33
2023-03-26T00:10:13.791Z,12.34
2023-03-26T00:12:28.075Z,12.32
2023-03-26T00:14:41.947Z,12.25
2023-03-26T00:16:56.914Z,12.22
2023-03-26T00:19:10.057Z,12.16
2023-03-26T00:21:27.252Z,12.08
2023-03-26T00:23:40.176Z,12.00
2023-03-26T00:25:55.611Z,11.94
2023-03-26T00:28:09.624Z,11.92
2023-03-26T00:30:23.101Z,11.91
2023-03-26T00:32:36.809Z,11.91
2023-03-26T00:34:55.370Z,11.91
2023-03-26T00:37:10.862Z,11.89
2023-03-26T00:39:24.996Z,11.88
2023-03-26T00:41:38.065Z,11.83
2023-03-26T00:43:52.057Z,11.82
2023-03-26T00:46:05.332Z,11.84
2023-03-26T00:48:18.766Z,11.83
2023-03-26T00:50:32.752Z,11.77
2023-03-26T00:52:47.259Z,11.72
2023-03-26T00:55:00.480Z,11.62
2023-03-26T00:57:20.303Z,11.53
2023-03-26T00:59:42.157Z,11.41
2023-03-26T01:01:59.411Z,11.31
2023-03-26T01:04:35.851Z,11.19
2023-03-26T01:06:49.763Z,11.05
2023-03-26T01:09:05.300Z,10.95
2023-03-26T01:11:20.993Z,10.89
2023-03-26T01:13:35.045Z,10.85
2023-03-26T01:15:51.474Z,10.77
2023-03-26T01:18:05.933Z,10.63
2023-03-26T01:20:27.651Z,10.49
2023-03-26T01:22:42.099Z,10.34
2023-03-26T01:24:57.476Z,10.21
2023-03-26T01:27:20.133Z,10.12
2023-03-26T01:29:39.137Z,9.98
2023-03-26T01:32:03.001Z,9.88
2023-03-26T01:34:21.955Z,9.80
2023-03-26T01:36:41.668Z,9.76
2023-03-26T01:39:03.438Z,9.72
2023-03-26T01:41:21.175Z,9.65
2023-03-26T01:43:39.687Z,9.60
2023-03-26T01:45:55.499Z,9.56
2023-03-26T01:48:10.526Z,9.52
2023-03-26T01:50:26.926Z,9.51
2023-03-26T01:52:40.602Z,9.49
2023-03-26T01:54:54.555Z,9.46
2023-03-26T01:57:19.085Z,9.41
2023-03-26T01:59:50.719Z,9.37
2023-03-26T02:02:10.095Z,9.33
2023-03-26T02:04:29.910Z,9.30
2023-03-26T02:06:47.863Z,9.25
2023-03-26T02:09:05.840Z,9.22
2023-03-26T02:11:20.093Z,9.17
2023-03-26T02:13:33.720Z,9.16
2023-03-26T02:15:57.641Z,9.16
2023-03-26T02:18:14.669Z,9.13
2023-03-26T02:20:31.092Z,9.09
2023-03-26T02:22:46.840Z,9.07
2023-03-26T02:25:02.767Z,9.04
2023-03-26T02:27:21.308Z,8.98
2023-03-26T02:29:38.799Z,8.96
2023-03-26T02:31:52.710Z,8.92
2023-03-26T02:34:06.606Z,8.87
2023-03-26T02:36:25.396Z,8.83
2023-03-26T02:38:42.819Z,8.77
2023-03-26T02:40:56.234Z,8.72
2023-03-26T02:43:12.543Z,8.63
2023-03-26T02:45:26.013Z,8.55
2023-03-26T02:47:52.231Z,8.46
2023-03-26T02:50:25.274Z,8.38
2023-03-26T02:52:56.622Z,8.33
2023-03-26T02:55:12.001Z,8.27
2023-03-26T02:57:28.252Z,8.22
2023-03-26T03:00:17.092Z,8.16
2023-03-26T03:02:39.148Z,8.09
2023-03-26T03:05:15.158Z,8.03
2023-03-26T03:07:28.243Z,7.99
2023-03-26T03:09:42.656Z,7.94
2023-03-26T03:12:15.622Z,7.88
2023-03-26T03:14:28.530Z,7.85
2023-03-26T03:16:42.252Z,7.82
2023-03-26T03:18:58.283Z,7.79
2023-03-26T03:21:20.381Z,7.77
2023-03-26T03:23:33.761Z,7.75
2023-03-26T03:25:58.194Z,7.73
2023-03-26T03:28:12.187Z,7.72
2023-03-26T03:30:24.966Z,7.71
2023-03-26T03:32:59.518Z,7.69
2023-03-26T03:35:14.053Z,7.68
2023-03-26T03:37:29.282Z,7.67
2023-03-26T03:39:43.945Z,7.66
2023-03-26T03:41:58.081Z,7.67
2023-03-26T03:44:12.107Z,7.66
2023-03-26T03:46:25.413Z,7.66
2023-03-26T03:48:41.042Z,7.65
2023-03-26T03:50:54.911Z,7.65
2023-03-26T03:53:10.797Z,7.64
2023-03-26T03:55:25.132Z,7.63
2023-03-26T03:57:40.292Z,7.61
2023-03-26T03:59:59.202Z,7.60
2023-03-26T04:02:13.962Z,7.58
2023-03-26T04:04:41.186Z,7.55
2023-03-26T04:06:59.392Z,7.52
2023-03-26T04:09:16.729Z,7.50
2023-03-26T04:11:31.147Z,7.48
2023-03-26T04:14:16.557Z,7.44
2023-03-26T04:16:43.253Z,7.39
2023-03-26T04:18:56.155Z,7.37
2023-03-26T04:21:10.369Z,7.36
2023-03-26T04:23:24.830Z,7.34
2023-03-26T04:25:43.190Z,7.32
2023-03-26T04:28:07.723Z,7.29
2023-03-26T04:30:43.524Z,7.26
2023-03-26T04:33:18.322Z,7.24
2023-03-26T04:35:31.674Z,7.23
2023-03-26T04:37:47.076Z,7.21
2023-03-26T04:40:03.515Z,7.18
2023-03-26T04:42:36.343Z,7.17
2023-03-26T04:45:00.858Z,7.16
2023-03-26T04:47:15.227Z,7.15
2023-03-26T04:49:31.587Z,7.13
2023-03-26T04:51:47.438Z,7.12
2023-03-26T04:54:19.619Z,7.11
2023-03-26T04:56:44.472Z,7.09
2023-03-26T04:59:31.416Z,7.07
2023-03-26T05:01:46.816Z,7.06
2023-03-26T05:04:01.225Z,7.05
2023-03-26T05:06:17.442Z,7.03
2023-03-26T05:08:31.250Z,7.02
2023-03-26T05:10:44.032Z,7.01
2023-03-26T05:13:06.658Z,7.01
2023-03-26T05:15:22.414Z,7.02
2023-03-26T05:17:56.556Z,7.02
2023-03-26T05:20:22.246Z,7.01
2023-03-26T05:22:37.940Z,6.99
2023-03-26T05:25:00.170Z,6.98
2023-03-26T05:27:17.935Z,6.96
2023-03-26T05:29:30.723Z,6.95
2023-03-26T05:31:43.876Z,6.93
2023-03-26T05:33:56.593Z,6.91
2023-03-26T05:36:14.372Z,6.90
2023-03-26T05:38:31.783Z,6.90
2023-03-26T05:40:45.044Z,6.90
2023-03-26T05:43:02.613Z,6.90
2023-03-26T05:45:23.506Z,6.89
2023-03-26T05:47:37.520Z,6.87
2023-03-26T05:49:50.607Z,6.85
2023-03-26T05:55:56.872Z,6.79
2023-03-26T05:58:28.522Z,6.77
2023-03-26T06:01:09.621Z,6.78
2023-03-26T06:03:44.291Z,6.75
2023-03-26T06:06:02.626Z,6.71
2023-03-26T06:08:25.135Z,6.67
2023-03-26T06:10:40.313Z,6.64
2023-03-26T06:12:54.418Z,6.62
2023-03-26T06:15:08.318Z,6.59
2023-03-26T06:17:44.009Z,6.55
2023-03-26T06:20:18.431Z,6.50
2023-03-26T06:22:34.491Z,6.46
2023-03-26T06:25:02.435Z,6.42
2023-03-26T06:27:36.910Z,6.38
2023-03-26T06:30:28.358Z,6.34
2023-03-26T06:33:14.097Z,6.29
2023-03-26T06:35:32.173Z,6.25
2023-03-26T06:37:45.121Z,6.21
2023-03-26T06:39:59.118Z,6.16
2023-03-26T06:43:06.457Z,6.13
2023-03-26T06:45:33.017Z,6.11
2023-03-26T06:48:23.610Z,6.10
2023-03-26T06:51:01.271Z,6.09
2023-03-26T06:53:32.525Z,6.08
2023-03-26T06:56:24.188Z,6.07
2023-03-26T06:59:05.792Z,6.05
2023-03-26T07:01:37.387Z,6.03
2023-03-26T07:04:08.251Z,6.00
2023-03-26T07:06:40.075Z,5.97
2023-03-26T07:09:11.285Z,5.96
2023-03-26T07:11:42.990Z,5.92
2023-03-26T07:14:18.030Z,5.93
2023-03-26T07:16:52.851Z,5.90
2023-03-26T07:19:34.882Z,5.88
2023-03-26T07:21:50.329Z,5.87
2023-03-26T07:24:30.189Z,5.83
2023-03-26T07:27:04.810Z,5.82
2023-03-26T07:29:37.080Z,5.81
2023-03-26T07:32:11.021Z,5.79
2023-03-26T07:34:54.641Z,5.79
2023-03-26T07:37:34.241Z,5.76
2023-03-26T07:40:12.792Z,5.73
2023-03-26T07:43:04.221Z,5.72
2023-03-26T07:45:53.355Z,5.73
2023-03-26T07:48:22.214Z,5.74
2023-03-26T07:50:55.561Z,5.74
2023-03-26T07:53:33.440Z,5.75
2023-03-26T07:56:23.264Z,5.78
2023-03-26T07:59:14.537Z,5.77
2023-03-26T08:02:05.478Z,5.78
2023-03-26T08:04:56.629Z,5.80
2023-03-26T08:07:32.792Z,5.83
2023-03-26T08:10:12.030Z,5.82
2023-03-26T08:12:48.729Z,5.80
2023-03-26T08:15:10.057Z,5.79
2023-03-26T08:17:31.875Z,5.78
2023-03-26T08:20:01.187Z,5.78
2023-03-26T08:22:21.838Z,5.77
2023-03-26T08:24:44.561Z,5.76
2023-03-26T08:27:05.105Z,5.77
2023-03-26T08:29:29.998Z,5.77
2023-03-26T08:31:47.645Z,5.77
2023-03-26T08:34:00.500Z,5.77
2023-03-26T08:36:15.383Z,5.77
2023-03-26T08:38:29.356Z,5.77
2023-03-26T08:41:12.823Z,5.77
2023-03-26T08:46:52.985Z,5.76
2023-03-26T08:49:24.506Z,5.72
2023-03-26T08:52:04.990Z,5.70
2023-03-26T08:54:51.053Z,5.67
2023-03-26T08:57:24.969Z,5.65
2023-03-26T09:00:09.944Z,5.63
2023-03-26T09:02:51.069Z,5.60
2023-03-26T09:05:35.463Z,5.58
2023-03-26T09:08:20.432Z,5.57
2023-03-26T09:10:55.582Z,5.56
2023-03-26T09:13:35.896Z,5.56
2023-03-26T09:16:18.809Z,5.53
2023-03-26T09:19:15.365Z,5.48
2023-03-26T09:21:57.867Z,5.42
2023-03-26T09:24:39.613Z,5.39
2023-03-26T09:27:02.058Z,5.34
2023-03-26T09:29:47.372Z,5.29
2023-03-26T09:32:30.942Z,5.24
2023-03-26T09:35:05.786Z,5.24
2023-03-26T09:37:35.713Z,5.22
2023-03-26T09:40:23.892Z,5.18
2023-03-26T09:42:46.894Z,5.13
2023-03-26T09:45:34.221Z,5.09
2023-03-26T09:48:17.216Z,5.04
2023-03-26T09:50:53.724Z,5.00
2023-03-26T09:53:21.833Z,4.96
2023-03-26T09:55:47.119Z,4.93
2023-03-26T09:58:24.511Z,4.88
2023-03-26T10:00:48.318Z,4.86
2023-03-26T10:03:22.013Z,4.85
2023-03-26T10:05:52.059Z,4.83
2023-03-26T10:08:15.667Z,4.84
2023-03-26T10:10:34.696Z,4.84
2023-03-26T10:12:51.722Z,4.84
2023-03-26T10:15:17.098Z,4.85
2023-03-26T10:17:46.894Z,4.84
2023-03-26T10:20:18.766Z,4.82
2023-03-26T10:22:47.110Z,4.79
2023-03-26T10:25:42.472Z,4.78
2023-03-26T10:28:04.480Z,4.77
2023-03-26T10:31:07.114Z,4.76
2023-03-26T10:33:25.164Z,4.76
2023-03-26T10:35:50.633Z,4.76
2023-03-26T10:38:21.887Z,4.76
2023-03-26T10:40:44.134Z,4.77
2023-03-26T10:43:31.593Z,4.78
2023-03-26T10:46:19.108Z,4.80
2023-03-26T10:48:44.181Z,4.81
2023-03-26T10:51:23.430Z,4.79
2023-03-26T10:53:46.972Z,4.76
2023-03-26T10:56:11.942Z,4.75
2023-03-26T10:58:28.803Z,4.74
2023-03-26T11:00:46.045Z,4.71
2023-03-26T11:03:29.595Z,4.68
2023-03-26T11:05:54.968Z,4.65
2023-03-26T11:08:12.744Z,4.63
2023-03-26T11:10:32.917Z,4.61
2023-03-26T11:12:49.820Z,4.60
2023-03-26T11:15:21.151Z,4.62
2023-03-26T11:17:44.997Z,4.63
2023-03-26T11:20:04.686Z,4.63
2023-03-26T11:22:30.725Z,4.63
2023-03-26T11:25:05.647Z,4.59
2023-03-26T11:27:27.483Z,4.57
2023-03-26T11:29:48.586Z,4.55
2023-03-26T11:32:09.184Z,4.52
2023-03-26T11:34:26.374Z,4.48
2023-03-26T11:36:44.128Z,4.43
2023-03-26T11:38:59.145Z,4.39
2023-03-26T11:41:23.458Z,4.35
2023-03-26T11:43:41.746Z,4.35
2023-03-26T11:45:56.796Z,4.36
2023-03-26T11:48:18.173Z,4.37
2023-03-26T11:50:34.011Z,4.38
2023-03-26T11:52:47.443Z,4.40
2023-03-26T11:55:00.496Z,4.40
2023-03-26T11:57:17.228Z,4.40
2023-03-26T11:59:45.157Z,4.38
2023-03-26T12:02:20.052Z,4.36
2023-03-26T12:04:38.977Z,4.34
2023-03-26T12:07:00.785Z,4.35
2023-03-26T12:09:22.566Z,4.36
2023-03-26T12:11:37.482Z,4.37
2023-03-26T12:13:58.573Z,4.38
2023-03-26T12:16:17.082Z,4.39
2023-03-26T12:18:33.162Z,4.40
2023-03-26T12:20:46.129Z,4.43
2023-03-26T12:23:02.610Z,4.43
2023-03-26T12:25:24.565Z,4.41
2023-03-26T12:27:39.142Z,4.39
2023-03-26T12:30:01.513Z,4.38
2023-03-26T12:32:19.669Z,4.37
2023-03-26T12:34:36.903Z,4.37
2023-03-26T12:36:54.331Z,4.33
2023-03-26T12:40:09.516Z,4.30
2023-03-26T12:44:44.988Z,4.24
2023-03-26T12:44:57.519Z,4.18
2023-03-26T12:47:57.877Z,4.15
2023-03-26T12:50:04.929Z,4.13
2023-03-26T12:52:41.530Z,4.11
2023-03-26T12:55:02.137Z,4.06
2023-03-26T12:57:31.857Z,4.02
2023-03-26T12:59:56.818Z,3.96
2023-03-26T13:02:26.498Z,3.93
2023-03-26T13:05:06.425Z,3.92
2023-03-26T13:07:32.416Z,3.92
2023-03-26T13:10:04.344Z,3.91
2023-03-26T13:12:27.431Z,3.89
2023-03-26T13:15:09.568Z,3.86
2023-03-26T13:17:33.646Z,3.84
2023-03-26T13:19:54.616Z,3.84
2023-03-26T13:22:19.376Z,3.83
2023-03-26T13:24:43.415Z,3.85
2023-03-26T13:27:08.360Z,3.85
2023-03-26T13:29:29.861Z,3.84
2023-03-26T13:31:48.386Z,3.84
2023-03-26T13:34:13.290Z,3.84
2023-03-26T13:36:31.886Z,3.82
2023-03-26T13:38:59.213Z,3.82
2023-03-26T13:41:22.194Z,3.80
2023-03-26T13:43:44.885Z,3.80
2023-03-26T13:46:09.805Z,3.79
2023-03-26T13:48:26.640Z,3.78
2023-03-26T13:50:44.199Z,3.80
2023-03-26T13:53:01.827Z,3.82
2023-03-26T13:55:26.091Z,3.83
2023-03-26T13:57:44.899Z,3.83
2023-03-26T14:00:03.722Z,3.82
2023-03-26T14:02:31.078Z,3.80
2023-03-26T14:04:49.369Z,3.79
2023-03-26T14:07:12.382Z,3.79
2023-03-26T14:09:29.677Z,3.75
2023-03-26T14:11:56.376Z,3.73
2023-03-26T14:14:13.742Z,3.72
2023-03-26T14:16:30.084Z,3.71
2023-03-26T14:18:48.377Z,3.71
2023-03-26T14:21:28.739Z,3.71
2023-03-26T14:24:07.722Z,3.72
2023-03-26T14:26:32.391Z,3.73
2023-03-26T14:29:09.785Z,3.72
2023-03-26T14:31:32.788Z,3.75
2023-03-26T14:34:13.224Z,3.79
2023-03-26T14:36:39.479Z,3.82
2023-03-26T14:39:31.142Z,3.84
2023-03-26T14:41:50.413Z,3.87
2023-03-26T14:44:47.699Z,3.90
2023-03-26T14:47:18.657Z,3.94
2023-03-26T14:49:58.286Z,3.97
2023-03-26T14:52:19.454Z,3.99
2023-03-26T14:54:34.645Z,4.02
2023-03-26T14:57:03.629Z,4.05
2023-03-26T14:59:51.132Z,4.07
2023-03-26T15:02:47.452Z,4.09
2023-03-26T15:05:23.280Z,4.10
2023-03-26T15:08:14.776Z,4.11
2023-03-26T15:10:57.657Z,4.12
2023-03-26T15:13:39.525Z,4.14
2023-03-26T15:16:39.325Z,4.16
2023-03-26T15:19:23.906Z,4.16
2023-03-26T15:22:05.501Z,4.16
2023-03-26T15:24:40.579Z,4.16
2023-03-26T15:27:34.416Z,4.16
2023-03-26T15:30:18.704Z,4.13
2023-03-26T15:33:14.044Z,4.13
2023-03-26T15:36:02.223Z,4.14
2023-03-26T15:38:51.590Z,4.14
2023-03-26T15:41:15.366Z,4.14
2023-03-26T15:43:32.685Z,4.16
2023-03-26T15:45:48.714Z,4.19
2023-03-26T15:48:35.386Z,4.23
2023-03-26T15:51:00.864Z,4.28
2023-03-26T15:53:26.306Z,4.33
2023-03-26T15:55:44.880Z,4.36
2023-03-26T15:58:05.287Z,4.40
2023-03-26T16:00:30.205Z,4.44
2023-03-26T16:02:54.765Z,4.48
2023-03-26T16:05:28.684Z,4.54
2023-03-26T16:07:59.865Z,4.60
2023-03-26T16:10:32.037Z,4.64
2023-03-26T16:12:57.406Z,4.66
2023-03-26T16:15:30.771Z,4.69
2023-03-26T16:18:12.979Z,4.69
2023-03-26T16:20:34.423Z,4.71
2023-03-26T16:23:04.263Z,4.75
2023-03-26T16:25:37.408Z,4.79
2023-03-26T16:28:08.732Z,4.82
2023-03-26T16:30:38.187Z,4.86
2023-03-26T16:32:51.720Z,4.89
2023-03-26T16:35:06.938Z,4.90
2023-03-26T16:37:45.066Z,4.93
2023-03-26T16:40:21.548Z,4.94
2023-03-26T16:42:41.846Z,4.95
2023-03-26T16:45:03.385Z,4.99
2023-03-26T16:47:24.964Z,5.04
2023-03-26T16:50:08.932Z,5.06
2023-03-26T16:52:46.777Z,5.09
2023-03-26T16:55:07.686Z,5.12
2023-03-26T16:57:33.126Z,5.13
2023-03-26T17:00:08.308Z,5.20
2023-03-26T17:02:29.803Z,5.26
2023-03-26T17:04:47.022Z,5.30
2023-03-26T17:07:15.048Z,5.33
2023-03-26T17:09:37.245Z,5.36
2023-03-26T17:11:59.410Z,5.39
2023-03-26T17:14:19.655Z,5.42
2023-03-26T17:16:36.981Z,5.46
2023-03-26T17:19:01.669Z,5.47
2023-03-26T17:21:19.445Z,5.54
2023-03-26T17:24:01.478Z,5.57
2023-03-26T17:26:22.777Z,5.66
2023-03-26T17:28:51.700Z,5.84
2023-03-26T17:31:17.213Z,6.07
2023-03-26T17:33:35.890Z,6.47
2023-03-26T17:36:25.353Z,6.80
2023-03-26T17:39:13.423Z,6.92
2023-03-26T17:41:55.515Z,6.98
2023-03-26T17:44:31.054Z,7.00
2023-03-26T17:46:48.466Z,7.05
2023-03-26T17:49:07.954Z,7.08
2023-03-26T17:51:41.307Z,7.08
2023-03-26T17:53:55.280Z,7.09
2023-03-26T17:56:15.538Z,7.10
2023-03-26T17:58:34.462Z,7.18
2023-03-26T18:00:53.188Z,7.26
2023-03-26T18:03:09.433Z,7.27
2023-03-26T18:05:23.306Z,7.29
2023-03-26T18:08:07.496Z,7.32
2023-03-26T18:10:36.291Z,7.40
2023-03-26T18:13:04.234Z,7.49
2023-03-26T18:15:38.274Z,7.64
2023-03-26T18:17:52.298Z,7.71
2023-03-26T18:20:10.979Z,7.79
2023-03-26T18:22:27.859Z,7.85
2023-03-26T18:24:44.622Z,7.91
2023-03-26T18:27:01.927Z,8.00
2023-03-26T18:29:24.792Z,8.23
2023-03-26T18:31:39.244Z,8.33
2023-03-26T18:33:54.172Z,8.43
2023-03-26T18:36:07.129Z,8.55
2023-03-26T18:38:35.052Z,8.76
2023-03-26T18:40:51.521Z,8.93
2023-03-26T18:43:05.443Z,9.14
2023-03-26T18:45:28.005Z,9.41
2023-03-26T18:47:41.488Z,9.54
2023-03-26T18:49:58.742Z,9.60
2023-03-26T18:52:13.253Z,9.58
2023-03-26T18:54:26.829Z,9.59
2023-03-26T18:56:42.815Z,9.59
2023-03-26T18:59:00.585Z,9.60
2023-03-26T19:01:25.032Z,9.59
2023-03-26T19:03:41.915Z,9.53
2023-03-26T19:05:55.607Z,9.45
2023-03-26T19:08:09.961Z,9.57
2023-03-26T19:10:26.211Z,9.64
2023-03-26T19:12:38.972Z,9.88
2023-03-26T19:15:10.022Z,10.20
2023-03-26T19:17:23.042Z,10.54
2023-03-26T19:19:39.670Z,10.55
2023-03-26T19:21:54.194Z,10.62
2023-03-26T19:24:08.323Z,10.68
2023-03-26T19:26:22.559Z,10.71
2023-03-26T19:28:38.444Z,10.84
2023-03-26T19:30:55.831Z,11.05
2023-03-26T19:33:19.465Z,11.29
2023-03-26T19:35:39.647Z,11.48
2023-03-26T19:37:57.687Z,11.70
2023-03-26T19:40:22.311Z,11.81
2023-03-26T19:42:43.295Z,12.00
2023-03-26T19:44:58.021Z,12.21
2023-03-26T19:47:18.307Z,12.09
2023-03-26T19:49:34.948Z,11.89
2023-03-26T19:51:47.575Z,11.81
2023-03-26T19:54:02.320Z,11.75
2023-03-26T19:56:20.653Z,11.60
2023-03-26T19:58:33.863Z,11.49
2023-03-26T20:00:46.611Z,11.43
2023-03-26T20:02:59.761Z,11.39
2023-03-26T20:05:24.053Z,11.43
2023-03-26T20:07:40.367Z,11.54
2023-03-26T20:09:53.541Z,11.66
2023-03-26T20:12:06.038Z,11.68
2023-03-26T20:14:26.878Z,11.61
2023-03-26T20:16:41.645Z,11.62
2023-03-26T20:18:58.439Z,11.66
2023-03-26T20:21:15.813Z,11.58
2023-03-26T20:23:29.837Z,11.52
2023-03-26T20:25:50.929Z,11.48
2023-03-26T20:28:04.354Z,11.50
2023-03-26T20:30:27.493Z,11.65
2023-03-26T20:32:50.848Z,11.89
2023-03-26T20:35:35.868Z,12.17
2023-03-26T20:37:49.486Z,12.27
2023-03-26T20:40:02.106Z,12.33
2023-03-26T20:42:16.136Z,12.31
2023-03-26T20:44:30.571Z,12.24
2023-03-26T20:46:43.725Z,12.20
2023-03-26T20:48:57.572Z,12.15
2023-03-26T20:51:13.726Z,12.09
2023-03-26T20:53:26.875Z,12.04
2023-03-26T20:55:39.792Z,11.92
2023-03-26T20:57:52.847Z,11.87
2023-03-26T21:00:10.122Z,11.83
2023-03-26T21:02:23.329Z,11.81
2023-03-26T21:04:36.410Z,11.80
2023-03-26T21:06:53.268Z,11.79
2023-03-26T21:09:09.087Z,11.81
2023-03-26T21:11:29.178Z,11.81
2023-03-26T21:13:44.159Z,11.79
2023-03-26T21:16:00.478Z,11.74
2023-03-26T21:18:15.251Z,11.65
2023-03-26T21:20:30.270Z,11.54
2023-03-26T21:22:52.972Z,11.48
2023-03-26T21:25:19.289Z,11.48
2023-03-26T21:27:42.525Z,11.48
2023-03-26T21:29:56.945Z,11.55
2023-03-26T21:32:13.425Z,11.60
2023-03-26T21:34:28.898Z,11.63
2023-03-26T21:36:43.723Z,11.63
2023-03-26T21:38:57.690Z,11.59
2023-03-26T21:41:19.408Z,11.49
2023-03-26T21:43:33.532Z,11.47
2023-03-26T21:45:47.053Z,11.45
2023-03-26T21:48:01.014Z,11.47
2023-03-26T21:50:16.886Z,11.51
2023-03-26T21:52:33.216Z,11.56
2023-03-26T21:54:46.938Z,11.57
2023-03-26T21:57:18.659Z,11.57
2023-03-26T21:59:39.599Z,11.55
2023-03-26T22:01:58.740Z,11.51
2023-03-26T22:04:19.096Z,11.48
2023-03-26T22:06:38.078Z,11.46
2023-03-26T22:08:51.435Z,11.41
2023-03-26T22:11:04.194Z,11.42
2023-03-26T22:13:16.820Z,11.39
2023-03-26T22:15:31.526Z,11.26
2023-03-26T22:17:44.452Z,11.08
2023-03-26T22:19:57.555Z,10.91
2023-03-26T22:22:10.339Z,10.75
2023-03-26T22:24:23.692Z,10.63
2023-03-26T22:26:39.402Z,10.54
2023-03-26T22:28:53.011Z,10.40
2023-03-26T22:31:11.681Z,10.28
2023-03-26T22:33:24.681Z,10.16
2023-03-26T22:35:38.536Z,10.07
2023-03-26T22:37:51.586Z,10.01
2023-03-26T22:40:06.526Z,9.93
2023-03-26T22:42:20.578Z,9.85
2023-03-26T22:44:33.063Z,9.81
2023-03-26T22:46:46.019Z,9.76
2023-03-26T22:48:59.400Z,9.68
2023-03-26T22:51:13.856Z,9.61
2023-03-26T22:53:26.817Z,9.57
2023-03-26T22:55:39.536Z,9.54
2023-03-26T22:57:52.025Z,9.52
2023-03-26T23:00:14.712Z,9.49
2023-03-26T23:02:27.403Z,9.44
2023-03-26T23:04:40.638Z,9.38
2023-03-26T23:06:54.465Z,9.30
2023-03-26T23:09:09.101Z,9.22
2023-03-26T23:11:24.339Z,9.18
2023-03-26T23:13:37.775Z,9.14
2023-03-26T23:15:55.499Z,9.10
2023-03-26T23:18:08.078Z,9.09
2023-03-26T23:20:23.182Z,9.10
2023-03-26T23:22:36.488Z,9.12
2023-03-26T23:24:49.301Z,9.13
2023-03-26T23:27:02.851Z,9.16
2023-03-26T23:29:15.370Z,9.18
2023-03-26T23:31:28.396Z,9.21
2023-03-26T23:33:47.275Z,9.23
2023-03-26T23:36:01.323Z,9.28
2023-03-26T23:38:15.855Z,9.35
2023-03-26T23:40:28.447Z,9.44
2023-03-26T23:42:41.248Z,9.51
2023-03-26T23:44:57.633Z,9.56
2023-03-26T23:47:11.375Z,9.60
2023-03-26T23:49:24.825Z,9.64
2023-03-26T23:51:38.438Z,9.69
2023-03-26T23:53:51.385Z,9.75
2023-03-26T23:56:04.734Z,9.80
2023-03-26T23:58:17.507Z,9.82
